Hazelton, North Dakota
Current Conditions -  °F | °C
As of 8:15 PM on Thursday 20 Nov 2014 (Local Time) from K7L2 Reporting Station
Overcast Overcast  
Wind Chill:   Ceiling: 700
Heat Index: 16°   Visibility: 10mi
Dew Point: 12°   Wind: 12mph
Humidity: 86%   Direction: 140°SE
Pressure: 29.99"   Gusts: NA
Location:  46.48°N, 100.28°W
Report Text: K7L2 210215Z AUTO 14010KT 10SM OVC007 M09/M11 A2999 RMK AO2
Loading
Personal Weather Stations






























Interactive Weather Map New forecast layout! Learn more

10-Day Weather Forecast

Advertisements
Track Severe Weather on mobile